»·PEaware :: WAT352 KSNA-KSBA

WAT352 :: KSNA-KSBA

FLIGHT INFORMATION

Flight Status: Arrived
Operator:
Walker Air Transport
More flights by this operator :: More flights under this callsign
Pilot: Matthew M. (27032)
Aircraft: BEECH AIRCRAFT SUPER KING AIR 350
(B350)
More flights by this aircraft type
Origin: KSNA John Wayne-Orange Co
United States
Destination: KSBA Santa Barbara Mun
United States
More flights between these airports :: More routes between these airports
Route: +SXC V208 VTU VTU282R KWANG
File this flight plan on PilotEdge
Remarks: TEC route CSTP28
Altitude:
(Current/Filed)
8,000ft
Speed:
(Current/Filed)
300kts
Departed: 01-Dec-20 12:16 PM
Arrived: 01-Dec-20 12:51 PM
Distance/Time
Traveled:
108nm/0:35
Distance/Time
To Go:
Arrived

Flight Plot

Page will automatically refresh every two minutes.


Map Options




Map Legend


Flown Route
Filed Route
Departure Airport
Arrival Airport
Navaid (VOR, NDB)
Fix

Horizontal Profiles

Position Reports

Time Latitude Longitude Heading Altitude Ground
Speed
01-Dec-20 12:02 33.671869 -117.867090 211 61ft 0kts
01-Dec-20 12:03 33.671869 -117.867090 210 61ft 0kts
01-Dec-20 12:04 33.671869 -117.867090 210 61ft 0kts
01-Dec-20 12:05 33.671869 -117.867090 210 61ft 0kts
01-Dec-20 12:06 33.671869 -117.867090 210 61ft 0kts
01-Dec-20 12:07 33.671869 -117.867090 210 61ft 0kts
01-Dec-20 12:08 33.671869 -117.867090 211 61ft 0kts
01-Dec-20 12:09 33.671869 -117.867090 211 61ft 0kts
01-Dec-20 12:10 33.671869 -117.867090 211 61ft 0kts
01-Dec-20 12:11 33.672624 -117.867774 20 61ft 15kts
01-Dec-20 12:12 33.677121 -117.864573 28 61ft 20kts
01-Dec-20 12:13 33.679951 -117.863610 297 61ft 0kts
01-Dec-20 12:14 33.679951 -117.863610 297 61ft 0kts
01-Dec-20 12:15 33.678027 -117.867394 208 61ft 67kts
01-Dec-20 12:16 33.648408 -117.883554 189 1143ft 149kts
01-Dec-20 12:17 33.603846 -117.890578 187 2831ft 165kts
01-Dec-20 12:18 33.557362 -117.907245 231 4302ft 187kts
01-Dec-20 12:19 33.535981 -117.964779 248 5921ft 191kts
01-Dec-20 12:20 33.515453 -118.023752 248 7467ft 192kts
01-Dec-20 12:21 33.492897 -118.088103 248 8014ft 239kts
01-Dec-20 12:22 33.464985 -118.167617 248 7999ft 273kts
01-Dec-20 12:23 33.434782 -118.253023 248 7994ft 282kts
01-Dec-20 12:24 33.403535 -118.340045 248 7993ft 285kts
01-Dec-20 12:25 33.389601 -118.430319 288 7988ft 278kts
01-Dec-20 12:26 33.433956 -118.503875 311 7992ft 274kts
01-Dec-20 12:27 33.482765 -118.573822 311 7992ft 273kts
01-Dec-20 12:28 33.531382 -118.643275 311 7991ft 272kts
01-Dec-20 12:29 33.580068 -118.712926 311 7991ft 272kts
01-Dec-20 12:30 33.628640 -118.782551 311 8003ft 271kts
01-Dec-20 12:31 33.676955 -118.851939 311 8027ft 271kts
01-Dec-20 12:32 33.725258 -118.921452 311 8031ft 270kts
01-Dec-20 12:33 33.776515 -118.986955 321 8028ft 269kts
01-Dec-20 12:34 33.834785 -119.042984 322 8030ft 267kts
01-Dec-20 12:35 33.892317 -119.099431 322 8027ft 266kts
01-Dec-20 12:36 33.949423 -119.155975 322 8020ft 266kts
01-Dec-20 12:37 34.006277 -119.212406 322 8014ft 265kts
01-Dec-20 12:38 34.063288 -119.269078 322 8007ft 264kts
01-Dec-20 12:39 34.119766 -119.325330 322 8006ft 264kts
01-Dec-20 12:40 34.176403 -119.381612 322 7651ft 265kts
01-Dec-20 12:41 34.231366 -119.436569 322 6132ft 249kts
01-Dec-20 12:42 34.284058 -119.489319 322 4625ft 240kts
01-Dec-20 12:43 34.320878 -119.544505 296 4016ft 188kts
01-Dec-20 12:44 34.343029 -119.601721 296 2653ft 181kts
01-Dec-20 12:45 34.364032 -119.655854 295 2160ft 181kts
01-Dec-20 12:47 34.385231 -119.711192 295 2125ft 174kts
01-Dec-20 12:48 34.404864 -119.762054 294 1019ft 150kts
01-Dec-20 12:49 34.422658 -119.802279 313 858ft 125kts
01-Dec-20 12:50 34.427849 -119.837995 268 17ft 97kts
01-Dec-20 12:51 34.428880 -119.844473 63 15ft 12kts
01-Dec-20 12:52 34.431075 -119.838550 70 15ft 24kts
01-Dec-20 12:53 34.432825 -119.835977 71 15ft 0kts
01-Dec-20 12:54 34.432824 -119.835977 71 15ft 0kts
01-Dec-20 12:55 34.432824 -119.835977 71 15ft 0kts
01-Dec-20 12:56 34.432824 -119.835977 71 15ft 0kts
01-Dec-20 12:57 34.432824 -119.835977 71 15ft 0kts

Navigation Log

Ident Type
Flight plan parsing failed, navigation log unavailable